Terminal Aerodrome Forecast
Issued by NWS

Home | Current Version | Previous Version | Text Only | Print | Product List | Glossary On
Versions: 1 2 3 4 5 6 7 8 9 10 11 12 13 14 15
564
FTUS45 KABQ 090540
TAFROW
TAF
KROW 090540Z 0906/1006 18008KT P6SM OVC020
     FM090800 17007KT P6SM OVC015
      TEMPO 0911/0915 OVC009
     FM091800 16006KT P6SM FEW015
     FM092100 17009KT P6SM SCT250
     FM100100 21005KT P6SM BKN200=

USA.gov is the U.S. government's official web portal to all federal, state and local government web resources and services.